createdAt,value
2022-08-04T00:01:52.182Z,57.80
2022-08-04T00:04:45.094Z,58.10
2022-08-04T00:07:44.234Z,58.20
2022-08-04T00:10:17.605Z,58.30
2022-08-04T00:12:48.286Z,58.50
2022-08-04T00:15:17.197Z,58.70
2022-08-04T00:17:55.031Z,58.80
2022-08-04T00:20:23.549Z,58.90
2022-08-04T00:22:55.371Z,59.10
2022-08-04T00:25:22.803Z,59.10
2022-08-04T00:27:54.458Z,58.80
2022-08-04T00:30:21.551Z,58.80
2022-08-04T00:32:49.582Z,58.60
2022-08-04T00:35:21.535Z,58.40
2022-08-04T00:37:48.292Z,58.30
2022-08-04T00:40:21.256Z,58.10
2022-08-04T00:43:26.227Z,58.10
2022-08-04T00:46:22.166Z,58.30
2022-08-04T00:49:13.300Z,58.40
2022-08-04T00:51:48.611Z,58.60
2022-08-04T00:55:08.598Z,58.90
2022-08-04T00:57:53.453Z,59.10
2022-08-04T01:00:23.108Z,59.30
2022-08-04T01:03:19.882Z,59.40
2022-08-04T01:05:53.164Z,59.60
2022-08-04T01:08:26.107Z,59.80
2022-08-04T01:11:20.173Z,60.30
2022-08-04T01:13:56.503Z,60.80
2022-08-04T01:16:26.268Z,61.40
2022-08-04T01:19:28.995Z,61.60
2022-08-04T01:22:05.703Z,61.70
2022-08-04T01:24:50.933Z,62.10
2022-08-04T01:27:27.631Z,62.50
2022-08-04T01:29:59.053Z,62.90
2022-08-04T01:32:40.008Z,63.30
2022-08-04T01:35:09.434Z,63.80
2022-08-04T01:38:03.769Z,64.00
2022-08-04T01:40:54.182Z,63.80
2022-08-04T01:43:21.482Z,63.80
2022-08-04T01:45:57.599Z,64.00
2022-08-04T01:48:26.081Z,64.10
2022-08-04T01:50:54.261Z,64.50
2022-08-04T01:53:21.834Z,64.70
2022-08-04T01:55:55.753Z,64.70
2022-08-04T01:58:24.243Z,64.90
2022-08-04T02:00:59.782Z,65.30
2022-08-04T02:04:18.548Z,65.70
2022-08-04T02:06:46.810Z,65.90
2022-08-04T02:09:53.902Z,65.90
2022-08-04T02:12:40.240Z,66.10
2022-08-04T02:15:33.100Z,66.40
2022-08-04T02:18:21.532Z,66.50
2022-08-04T02:21:00.080Z,66.70
2022-08-04T02:23:38.545Z,66.80
2022-08-04T02:26:28.053Z,66.90
2022-08-04T02:29:00.729Z,67.20
2022-08-04T02:31:33.232Z,67.40
2022-08-04T02:34:21.290Z,67.60
2022-08-04T02:36:48.698Z,67.80
2022-08-04T02:39:19.779Z,68.10
2022-08-04T02:41:52.218Z,68.20
2022-08-04T02:44:24.758Z,68.10
2022-08-04T02:46:53.465Z,68.30
2022-08-04T02:49:22.245Z,68.60
2022-08-04T02:51:57.483Z,68.60
2022-08-04T02:54:40.649Z,68.60
2022-08-04T02:57:12.591Z,68.40
2022-08-04T03:00:15.180Z,68.40
2022-08-04T03:02:47.895Z,69.40
2022-08-04T03:05:24.739Z,68.70
2022-08-04T03:08:15.697Z,68.60
2022-08-04T03:11:20.065Z,68.80
2022-08-04T03:13:58.373Z,69.00
2022-08-04T03:17:02.168Z,69.50
2022-08-04T03:19:57.863Z,70.40
2022-08-04T03:23:14.001Z,70.70
2022-08-04T03:26:08.022Z,71.10
2022-08-04T03:28:48.691Z,71.40
2022-08-04T03:31:46.374Z,71.40
2022-08-04T03:34:31.516Z,72.00
2022-08-04T03:37:11.635Z,72.40
2022-08-04T03:39:38.376Z,72.90
2022-08-04T03:42:43.226Z,73.20
2022-08-04T03:45:47.527Z,72.90
2022-08-04T03:48:45.194Z,72.70
2022-08-04T03:51:37.674Z,72.90
2022-08-04T03:54:49.729Z,73.20
2022-08-04T03:57:41.360Z,73.60
2022-08-04T04:00:52.551Z,74.00
2022-08-04T04:03:52.901Z,74.10
2022-08-04T04:07:05.053Z,74.20
2022-08-04T04:10:05.994Z,74.60
2022-08-04T04:12:48.131Z,75.20
2022-08-04T04:15:43.496Z,75.40
2022-08-04T04:18:18.428Z,75.20
2022-08-04T04:21:17.895Z,75.40
2022-08-04T04:24:08.172Z,75.70
2022-08-04T04:26:54.963Z,76.00
2022-08-04T04:29:40.157Z,76.20
2022-08-04T04:32:14.849Z,76.30
2022-08-04T04:35:02.821Z,76.40
2022-08-04T04:37:48.983Z,76.50
2022-08-04T04:40:25.231Z,77.40
2022-08-04T04:43:01.626Z,76.80
2022-08-04T04:45:34.249Z,76.90
2022-08-04T04:48:30.034Z,76.60
2022-08-04T04:51:06.117Z,77.10
2022-08-04T04:54:04.783Z,76.60
2022-08-04T04:56:43.930Z,75.70
2022-08-04T04:59:13.097Z,75.30
2022-08-04T05:02:28.497Z,74.90
2022-08-04T05:05:22.105Z,75.10
2022-08-04T05:08:44.188Z,75.10
2022-08-04T05:11:17.065Z,75.10
2022-08-04T05:14:35.310Z,75.10
2022-08-04T05:16:41.708Z,74.80
2022-08-04T05:19:17.385Z,75.00
2022-08-04T05:21:57.039Z,75.20
2022-08-04T05:24:28.165Z,74.70
2022-08-04T05:27:03.946Z,74.80
2022-08-04T05:29:38.591Z,74.90
2022-08-04T05:32:14.884Z,75.10
2022-08-04T05:34:49.991Z,75.10
2022-08-04T05:37:21.774Z,75.10
2022-08-04T05:39:55.849Z,75.20
2022-08-04T05:42:23.399Z,75.20
2022-08-04T05:44:51.310Z,75.30
2022-08-04T05:47:21.357Z,76.00
2022-08-04T05:49:55.642Z,76.60
2022-08-04T05:52:31.634Z,76.50
2022-08-04T05:55:00.572Z,77.30
2022-08-04T05:57:28.926Z,76.20
2022-08-04T05:59:57.393Z,75.50
2022-08-04T06:02:25.351Z,75.00
2022-08-04T06:04:55.110Z,74.80
2022-08-04T06:07:26.688Z,74.60
2022-08-04T06:09:54.321Z,74.90
2022-08-04T06:12:43.516Z,74.90
2022-08-04T06:15:16.842Z,74.30
2022-08-04T06:19:40.149Z,73.80
2022-08-04T06:20:38.513Z,73.60
2022-08-04T06:23:19.447Z,73.00
2022-08-04T06:25:57.056Z,70.50
2022-08-04T06:28:28.025Z,67.50
2022-08-04T06:32:26.884Z,63.40
2022-08-04T06:33:54.233Z,60.80
2022-08-04T06:36:22.239Z,59.40
2022-08-04T06:38:58.711Z,58.70
2022-08-04T06:41:26.768Z,57.40
2022-08-04T06:43:54.569Z,57.40
2022-08-04T06:46:21.903Z,56.50
2022-08-04T06:48:52.923Z,55.50
2022-08-04T06:51:36.254Z,54.90
2022-08-04T06:54:07.967Z,55.00
2022-08-04T06:56:37.964Z,54.80
2022-08-04T06:59:05.603Z,54.10
2022-08-04T07:01:35.528Z,53.80
2022-08-04T07:04:05.154Z,52.80
2022-08-04T07:06:32.756Z,52.70
2022-08-04T07:09:00.647Z,51.40
2022-08-04T07:11:39.262Z,51.50
2022-08-04T07:14:12.278Z,50.10
2022-08-04T07:16:42.305Z,49.10
2022-08-04T07:19:10.522Z,49.50
2022-08-04T07:21:39.429Z,49.60
2022-08-04T07:24:06.607Z,49.70
2022-08-04T07:26:37.960Z,50.00
2022-08-04T07:29:04.696Z,50.40
2022-08-04T07:31:35.208Z,50.50
2022-08-04T07:34:11.572Z,50.20
2022-08-04T07:36:55.555Z,50.30
2022-08-04T07:39:32.068Z,50.30
2022-08-04T07:42:17.740Z,50.40
2022-08-04T07:44:46.053Z,50.90
2022-08-04T07:47:13.199Z,50.70
2022-08-04T07:49:55.168Z,51.30
2022-08-04T07:52:26.128Z,50.50
2022-08-04T07:54:56.270Z,50.90
2022-08-04T07:57:40.553Z,50.70
2022-08-04T08:00:14.433Z,50.90
2022-08-04T08:02:48.336Z,50.80
2022-08-04T08:05:17.066Z,50.60
2022-08-04T08:07:55.039Z,50.30
2022-08-04T08:10:25.383Z,50.00
2022-08-04T08:12:54.035Z,49.50
2022-08-04T08:15:23.882Z,49.20
2022-08-04T08:17:55.555Z,49.20
2022-08-04T08:20:30.866Z,49.20
2022-08-04T08:22:59.034Z,49.10
2022-08-04T08:25:25.878Z,48.80
2022-08-04T08:27:55.904Z,48.50
2022-08-04T08:30:32.061Z,48.80
2022-08-04T08:33:05.693Z,48.70
2022-08-04T08:35:53.431Z,48.70
2022-08-04T08:38:38.543Z,48.90
2022-08-04T08:41:30.459Z,48.60
2022-08-04T08:44:36.550Z,48.70
2022-08-04T08:47:24.720Z,48.80
2022-08-04T08:50:25.618Z,48.20
2022-08-04T08:53:02.980Z,48.20
2022-08-04T08:55:57.512Z,48.50
2022-08-04T08:58:52.091Z,47.90
2022-08-04T09:01:59.152Z,47.70
2022-08-04T09:04:44.286Z,47.70
2022-08-04T09:07:37.103Z,47.40
2022-08-04T09:10:09.039Z,47.20
2022-08-04T09:12:47.167Z,46.60
2022-08-04T09:15:39.586Z,46.60
2022-08-04T09:18:15.261Z,46.80
2022-08-04T09:20:53.981Z,47.20
2022-08-04T09:23:48.992Z,46.60
2022-08-04T09:26:46.955Z,46.40
2022-08-04T09:29:27.749Z,46.50
2022-08-04T09:32:07.495Z,45.80
2022-08-04T09:35:03.285Z,45.70
2022-08-04T09:37:57.985Z,46.00
2022-08-04T09:40:53.106Z,45.70
2022-08-04T09:44:42.370Z,45.60
2022-08-04T09:46:26.562Z,45.30
2022-08-04T09:49:05.286Z,44.50
2022-08-04T09:51:57.533Z,57.00
2022-08-04T09:55:03.898Z,45.10
2022-08-04T09:57:55.657Z,45.20
2022-08-04T10:00:40.608Z,44.30
2022-08-04T10:03:16.063Z,44.70
2022-08-04T10:06:12.737Z,44.60
2022-08-04T10:09:28.447Z,44.40
2022-08-04T10:12:23.406Z,44.00
2022-08-04T10:15:00.437Z,43.80
2022-08-04T10:18:11.789Z,43.90
2022-08-04T10:20:58.110Z,44.00
2022-08-04T10:23:55.394Z,43.70
2022-08-04T10:26:29.805Z,43.90
2022-08-04T10:29:26.603Z,43.90
2022-08-04T10:32:09.782Z,43.60
2022-08-04T10:34:59.359Z,43.60
2022-08-04T10:37:59.931Z,42.90
2022-08-04T10:40:46.621Z,43.20
2022-08-04T10:43:42.868Z,43.40
2022-08-04T10:46:27.537Z,43.20
2022-08-04T10:48:56.923Z,42.80
2022-08-04T10:52:02.090Z,43.00
2022-08-04T10:54:31.515Z,42.20
2022-08-04T10:57:07.645Z,41.00
2022-08-04T10:59:49.944Z,40.80
2022-08-04T11:02:27.280Z,38.40
2022-08-04T11:05:20.776Z,39.00
2022-08-04T11:07:55.347Z,39.30
2022-08-04T11:10:25.444Z,39.40
2022-08-04T11:13:01.840Z,39.70
2022-08-04T11:15:45.014Z,38.80
2022-08-04T11:18:23.543Z,38.60
2022-08-04T11:21:02.488Z,38.50
2022-08-04T11:23:34.619Z,38.00
2022-08-04T11:26:29.435Z,38.20
2022-08-04T11:29:20.413Z,38.00
2022-08-04T11:31:51.844Z,37.70
2022-08-04T11:34:26.297Z,37.40
2022-08-04T11:37:14.944Z,37.50
2022-08-04T11:39:57.274Z,37.20
2022-08-04T11:42:30.917Z,36.90
2022-08-04T11:45:05.809Z,36.10
2022-08-04T11:47:41.351Z,36.70
2022-08-04T11:50:17.133Z,36.60
2022-08-04T11:52:45.580Z,36.60
2022-08-04T11:55:16.601Z,37.20
2022-08-04T11:57:44.466Z,36.10
2022-08-04T12:00:14.378Z,36.20
2022-08-04T12:03:03.040Z,36.30
2022-08-04T12:05:37.828Z,35.30
2022-08-04T12:08:26.051Z,35.80
2022-08-04T12:11:09.435Z,35.70
2022-08-04T12:13:41.975Z,35.70
2022-08-04T12:16:38.680Z,34.90
2022-08-04T12:19:15.649Z,34.80
2022-08-04T12:22:00.055Z,33.50
2022-08-04T12:24:29.393Z,32.80
2022-08-04T12:27:08.589Z,33.70
2022-08-04T12:29:41.699Z,33.50
2022-08-04T12:32:21.254Z,33.10
2022-08-04T12:35:09.213Z,33.10
2022-08-04T12:38:05.888Z,32.40
2022-08-04T12:40:44.875Z,31.80
2022-08-04T12:43:32.413Z,32.00
2022-08-04T12:46:04.432Z,31.90
2022-08-04T12:48:36.217Z,31.40
2022-08-04T12:51:03.302Z,31.90
2022-08-04T12:53:50.909Z,32.00
2022-08-04T12:56:25.953Z,32.20
2022-08-04T12:59:02.012Z,31.90
2022-08-04T13:02:07.411Z,31.60
2022-08-04T13:04:29.725Z,32.00
2022-08-04T13:07:07.251Z,31.50
2022-08-04T13:09:34.570Z,31.50
2022-08-04T13:12:15.329Z,31.60
2022-08-04T13:14:50.192Z,31.40
2022-08-04T13:17:17.281Z,31.00
2022-08-04T13:19:50.209Z,31.10
2022-08-04T13:22:34.358Z,31.30
2022-08-04T13:26:40.364Z,31.70
2022-08-04T13:27:55.496Z,31.40
2022-08-04T13:30:25.971Z,31.70
2022-08-04T13:33:02.463Z,30.60
2022-08-04T13:35:55.416Z,30.50
2022-08-04T13:38:20.417Z,30.20
2022-08-04T13:40:48.199Z,30.60
2022-08-04T13:44:15.534Z,30.50
2022-08-04T13:46:37.027Z,30.20
2022-08-04T13:49:37.594Z,30.20
2022-08-04T13:52:00.345Z,30.80
2022-08-04T13:54:48.074Z,29.70
2022-08-04T13:57:30.186Z,29.70
2022-08-04T14:00:03.120Z,30.00
2022-08-04T14:02:38.867Z,30.20
2022-08-04T14:05:18.373Z,30.70
2022-08-04T14:07:50.318Z,29.90
2022-08-04T14:10:17.136Z,30.10
2022-08-04T14:12:49.922Z,30.00
2022-08-04T14:16:01.432Z,30.00
2022-08-04T14:18:29.563Z,29.90
2022-08-04T14:21:05.844Z,30.50
2022-08-04T14:23:47.592Z,30.00
2022-08-04T14:26:19.733Z,30.50
2022-08-04T14:29:25.068Z,30.20
2022-08-04T14:31:37.798Z,30.10
2022-08-04T14:34:30.100Z,29.90
2022-08-04T14:37:17.098Z,30.40
2022-08-04T14:40:18.402Z,30.00
2022-08-04T14:42:54.650Z,30.00
2022-08-04T14:45:31.597Z,30.60
2022-08-04T14:47:59.320Z,30.70
2022-08-04T14:50:42.503Z,30.50
2022-08-04T14:53:26.261Z,30.20
2022-08-04T14:55:56.783Z,30.80
2022-08-04T14:58:34.041Z,30.70
2022-08-04T15:01:10.768Z,30.90
2022-08-04T15:03:49.687Z,30.90
2022-08-04T15:06:23.936Z,30.80
2022-08-04T15:08:53.316Z,30.60
2022-08-04T15:11:23.123Z,30.30
2022-08-04T15:13:54.178Z,30.40
2022-08-04T15:16:24.834Z,30.70
2022-08-04T15:18:56.996Z,30.30
2022-08-04T15:21:28.108Z,29.80
2022-08-04T15:23:58.205Z,30.40
2022-08-04T15:26:44.631Z,30.10
2022-08-04T15:29:17.340Z,29.60
2022-08-04T15:32:05.422Z,29.90
2022-08-04T15:34:47.329Z,30.20
2022-08-04T15:37:31.099Z,30.10
2022-08-04T15:40:18.452Z,29.90
2022-08-04T15:43:22.528Z,29.70
2022-08-04T15:46:02.336Z,29.80
2022-08-04T15:48:39.275Z,29.70
2022-08-04T15:51:14.334Z,30.40
2022-08-04T15:54:02.609Z,30.80
2022-08-04T15:56:28.814Z,31.20
2022-08-04T15:58:59.324Z,30.90
2022-08-04T16:01:27.660Z,30.50
2022-08-04T16:04:00.441Z,30.20
2022-08-04T16:06:29.181Z,30.50
2022-08-04T16:09:00.385Z,30.80
2022-08-04T16:11:32.193Z,31.00
2022-08-04T16:13:59.274Z,31.20
2022-08-04T16:16:49.066Z,31.00
2022-08-04T16:19:21.690Z,30.90
2022-08-04T16:22:02.346Z,30.90
2022-08-04T16:24:44.112Z,30.70
2022-08-04T16:27:17.410Z,30.80
2022-08-04T16:29:46.778Z,30.90
2022-08-04T16:32:15.094Z,30.50
2022-08-04T16:34:49.373Z,30.40
2022-08-04T16:37:21.686Z,30.10
2022-08-04T16:39:50.852Z,30.20
2022-08-04T16:42:30.580Z,30.30
2022-08-04T16:45:09.427Z,30.20
2022-08-04T16:48:04.304Z,30.00
2022-08-04T16:50:31.859Z,30.40
2022-08-04T16:53:09.642Z,30.10
2022-08-04T16:55:47.793Z,30.20
2022-08-04T16:58:19.115Z,30.30
2022-08-04T17:00:45.981Z,30.60
2022-08-04T17:03:13.268Z,30.60
2022-08-04T17:05:43.204Z,30.60
2022-08-04T17:10:56.958Z,31.20
2022-08-04T17:14:01.959Z,31.40
2022-08-04T17:16:21.190Z,31.00
2022-08-04T17:18:53.461Z,30.90
2022-08-04T17:21:24.804Z,30.90
2022-08-04T17:24:14.988Z,31.30
2022-08-04T17:26:51.874Z,31.20
2022-08-04T17:29:43.419Z,31.40
2022-08-04T17:32:20.675Z,31.60
2022-08-04T17:34:51.505Z,31.70
2022-08-04T17:37:53.264Z,31.80
2022-08-04T17:40:18.017Z,31.90
2022-08-04T17:42:50.814Z,31.80
2022-08-04T17:45:50.893Z,31.90
2022-08-04T17:48:24.208Z,31.80
2022-08-04T17:50:51.676Z,32.00
2022-08-04T17:54:01.472Z,32.00
2022-08-04T17:56:51.878Z,32.10
2022-08-04T17:59:55.995Z,32.40
2022-08-04T18:02:32.685Z,32.40
2022-08-04T18:05:11.531Z,32.50
2022-08-04T18:08:39.959Z,32.50
2022-08-04T18:10:52.624Z,33.70
2022-08-04T18:13:26.551Z,34.40
2022-08-04T18:16:14.392Z,34.80
2022-08-04T18:19:11.694Z,35.20
2022-08-04T18:21:46.895Z,34.10
2022-08-04T18:24:55.311Z,34.50
2022-08-04T18:27:23.840Z,34.30
2022-08-04T18:30:14.903Z,34.40
2022-08-04T18:33:24.497Z,34.80
2022-08-04T18:36:33.752Z,34.90
2022-08-04T18:38:22.840Z,34.60
2022-08-04T18:40:53.017Z,34.90
2022-08-04T18:43:28.648Z,34.50
2022-08-04T18:46:00.298Z,34.90
2022-08-04T18:48:36.197Z,35.30
2022-08-04T18:51:23.313Z,35.50
2022-08-04T18:53:55.281Z,35.50
2022-08-04T18:56:30.088Z,35.80
2022-08-04T18:59:04.646Z,35.60
2022-08-04T19:02:13.172Z,36.20
2022-08-04T19:04:32.101Z,37.30
2022-08-04T19:07:24.692Z,38.10
2022-08-04T19:09:52.153Z,38.80
2022-08-04T19:12:27.676Z,39.30
2022-08-04T19:15:09.020Z,39.90
2022-08-04T19:17:53.642Z,40.10
2022-08-04T19:20:30.794Z,40.70
2022-08-04T19:24:11.696Z,41.20
2022-08-04T19:26:02.200Z,41.50
2022-08-04T19:28:36.886Z,41.60
2022-08-04T19:31:09.395Z,42.10
2022-08-04T19:33:58.929Z,42.30
2022-08-04T19:36:29.090Z,42.60
2022-08-04T19:39:01.610Z,42.80
2022-08-04T19:41:31.223Z,42.60
2022-08-04T19:44:00.513Z,42.70
2022-08-04T19:46:28.442Z,42.60
2022-08-04T19:48:59.542Z,43.10
2022-08-04T19:51:32.499Z,43.10
2022-08-04T19:54:04.099Z,43.00
2022-08-04T19:56:40.521Z,43.10
2022-08-04T19:59:11.129Z,43.10
2022-08-04T20:01:45.159Z,43.00
2022-08-04T20:04:15.904Z,43.50
2022-08-04T20:06:43.466Z,43.60
2022-08-04T20:09:26.251Z,44.00
2022-08-04T20:11:59.201Z,44.50
2022-08-04T20:14:32.247Z,44.90
2022-08-04T20:17:09.905Z,45.20
2022-08-04T20:19:37.665Z,45.40
2022-08-04T20:22:04.427Z,45.90
2022-08-04T20:24:41.556Z,46.00
2022-08-04T20:27:16.333Z,46.40
2022-08-04T20:29:48.328Z,46.80
2022-08-04T20:32:16.348Z,47.10
2022-08-04T20:34:46.136Z,47.70
2022-08-04T20:37:15.466Z,47.70
2022-08-04T20:39:44.537Z,47.50
2022-08-04T20:42:27.751Z,47.70
2022-08-04T20:45:03.505Z,47.80
2022-08-04T20:47:35.567Z,48.00
2022-08-04T20:50:09.665Z,48.20
2022-08-04T20:52:37.200Z,47.90
2022-08-04T20:55:05.562Z,48.00
2022-08-04T20:57:47.491Z,47.90
2022-08-04T21:00:14.898Z,48.20
2022-08-04T21:02:41.702Z,48.30
2022-08-04T21:05:11.158Z,48.50
2022-08-04T21:07:43.782Z,48.50
2022-08-04T21:10:11.064Z,48.60
2022-08-04T21:12:37.957Z,48.80
2022-08-04T21:15:15.916Z,48.90
2022-08-04T21:20:36.111Z,49.00
2022-08-04T21:23:08.808Z,49.40
2022-08-04T21:25:42.558Z,49.50
2022-08-04T21:28:12.791Z,49.50
2022-08-04T21:30:54.065Z,49.40
2022-08-04T21:33:23.492Z,49.60
2022-08-04T21:35:54.590Z,49.60
2022-08-04T21:38:27.954Z,49.60
2022-08-04T21:41:01.800Z,49.70
2022-08-04T21:43:30.059Z,49.90
2022-08-04T21:46:11.823Z,50.10
2022-08-04T21:48:42.510Z,50.40
2022-08-04T21:52:00.347Z,50.40
2022-08-04T21:54:17.375Z,50.60
2022-08-04T21:56:50.658Z,50.80
2022-08-04T21:59:18.452Z,50.80
2022-08-04T22:01:54.709Z,51.00
2022-08-04T22:04:28.912Z,51.20
2022-08-04T22:06:55.680Z,51.50
2022-08-04T22:09:22.523Z,51.50
2022-08-04T22:11:52.514Z,51.60
2022-08-04T22:14:29.705Z,51.60
2022-08-04T22:17:02.818Z,51.50
2022-08-04T22:19:49.716Z,52.00
2022-08-04T22:22:25.685Z,52.30
2022-08-04T22:24:54.961Z,52.40
2022-08-04T22:27:40.353Z,52.30
2022-08-04T22:30:17.325Z,52.40
2022-08-04T22:32:46.701Z,52.40
2022-08-04T22:35:30.864Z,52.30
2022-08-04T22:38:25.388Z,52.40
2022-08-04T22:41:00.967Z,52.30
2022-08-04T22:43:32.069Z,52.50
2022-08-04T22:46:09.479Z,52.80
2022-08-04T22:48:39.881Z,53.00
2022-08-04T22:51:13.173Z,53.30
2022-08-04T22:53:48.864Z,53.60
2022-08-04T22:56:37.717Z,53.60
2022-08-04T22:59:10.120Z,53.60
2022-08-04T23:02:01.255Z,53.50
2022-08-04T23:04:25.584Z,54.20
2022-08-04T23:06:54.833Z,54.20
2022-08-04T23:09:48.756Z,54.30
2022-08-04T23:12:27.874Z,54.60
2022-08-04T23:14:58.491Z,54.70
2022-08-04T23:17:27.286Z,54.70
2022-08-04T23:19:59.682Z,54.80
2022-08-04T23:22:41.541Z,55.00
2022-08-04T23:25:15.722Z,55.10
2022-08-04T23:27:50.694Z,55.40
2022-08-04T23:30:29.873Z,55.60
2022-08-04T23:32:58.087Z,55.90
2022-08-04T23:35:30.096Z,55.70
2022-08-04T23:38:00.087Z,55.30
2022-08-04T23:40:50.365Z,55.30
2022-08-04T23:43:18.261Z,54.70
2022-08-04T23:46:06.468Z,54.50
2022-08-04T23:48:39.350Z,54.30
2022-08-04T23:51:15.423Z,54.80
2022-08-04T23:54:01.545Z,54.90
2022-08-04T23:56:33.908Z,54.20
2022-08-04T23:59:03.672Z,54.40
